Time;durP1;ratioP1;P1;durP2;ratioP2;P2;SDS_P1;SDS_P2;PMS_P1;PMS_P2;Temp;Humidity;BMP_temperature;BMP_pressure;BME280_temperature;BME280_humidity;BME280_pressure;Samples;Min_cycle;Max_cycle;Signal;HPM_P1;HPM_P2
2022/05/31 00:00:43;;;;;;;6.85;6.25;;;;;;;16.59;88.32;100331.56;1678249;84;21543;-69
2022/05/31 00:03:09;;;;;;;6.78;6.25;;;;;;;16.51;88.65;100332.70;1674303;84;21019;-70
2022/05/31 00:05:36;;;;;;;7.55;6.75;;;;;;;16.42;88.83;100330.56;1681483;84;21055;-74
2022/05/31 00:08:04;;;;;;;7.20;6.60;;;;;;;16.35;89.15;100331.48;1683312;85;21018;-68
2022/05/31 00:10:31;;;;;;;8.30;7.50;;;;;;;16.19;89.82;100314.61;1686250;84;21479;-69
2022/05/31 00:12:57;;;;;;;10.38;8.53;;;;;;;16.19;89.82;100314.61;1683834;84;21665;-69
2022/05/31 00:15:23;;;;;;;;;;;;;;;16.17;90.47;100315.89;1682052;84;21015;-69
2022/05/31 00:17:49;;;;;;;11.38;10.20;;;;;;;16.18;91.55;100315.67;1680136;84;20125;-70
2022/05/31 00:20:16;;;;;;;12.73;11.38;;;;;;;16.16;92.44;100320.42;1682516;84;21015;-70
2022/05/31 00:22:44;;;;;;;10.63;9.75;;;;;;;16.19;92.58;100319.98;1686960;84;21067;-70
2022/05/31 00:25:12;;;;;;;11.30;10.15;;;;;;;16.22;92.96;100325.42;1686135;84;20980;-69
2022/05/31 00:27:38;;;;;;;10.35;9.35;;;;;;;16.23;92.63;100327.08;1683346;84;21181;-71
2022/05/31 00:30:08;;;;;;;11.93;10.10;;;;;;;16.22;92.46;100326.27;1681668;84;21483;-69
2022/05/31 00:32:38;;;;;;;11.08;10.13;;;;;;;16.22;92.46;100326.27;1685284;84;21011;-70
2022/05/31 00:35:09;;;;;;;12.55;11.18;;;;;;;16.24;92.92;100327.39;1681920;84;21130;-72
2022/05/31 00:37:36;;;;;;;11.33;10.35;;;;;;;16.26;93.12;100332.83;1685339;84;21063;-70
2022/05/31 00:40:05;;;;;;;11.95;9.33;;;;;;;16.28;93.23;100337.98;1685399;84;21582;-69
2022/05/31 00:42:53;;;;;;;11.20;10.10;;;;;;;16.25;92.71;100334.39;1673629;84;21071;-69
2022/05/31 00:45:27;;;;;;;9.55;8.73;;;;;;;16.21;92.61;100334.02;1678691;84;20994;-73
2022/05/31 00:47:54;;;;;;;9.83;8.53;;;;;;;16.20;92.42;100332.39;1665355;85;20984;-69
2022/05/31 00:50:37;;;;;;;9.10;8.30;;;;;;;16.13;92.01;100331.12;1666466;85;21110;-70
2022/05/31 00:53:09;;;;;;;9.23;8.43;;;;;;;16.08;91.90;100335.00;1672854;84;21008;-69
2022/05/31 00:55:44;;;;;;;10.10;9.30;;;;;;;16.01;92.08;100334.77;1675572;84;20995;-70
2022/05/31 00:58:17;;;;;;;9.08;7.62;;;;;;;15.84;92.14;100333.20;1678923;84;21039;-70
2022/05/31 01:00:44;;;;;;;8.28;7.47;;;;;;;15.84;92.14;100333.20;1671010;84;21504;-69
2022/05/31 01:03:15;;;;;;;8.13;7.47;;;;;;;15.76;92.33;100331.63;1669467;84;21519;-69
2022/05/31 01:05:41;;;;;;;10.20;9.20;;;;;;;15.68;92.65;100335.40;1675018;84;21066;-70
2022/05/31 01:08:10;;;;;;;9.73;8.85;;;;;;;15.62;92.91;100338.17;1679511;85;21114;-71
2022/05/31 01:10:41;;;;;;;9.18;8.38;;;;;;;15.57;93.01;100342.31;1670338;85;21051;-70
2022/05/31 01:13:28;;;;;;;10.58;9.50;;;;;;;15.48;93.61;100340.98;1667710;84;21189;-69
2022/05/31 01:16:07;;;;;;;8.33;7.60;;;;;;;15.48;93.61;100340.98;1657860;84;21086;-71
2022/05/31 01:18:52;;;;;;;9.38;8.68;;;;;;;15.48;93.89;100340.14;1677992;84;21035;-68
2022/05/31 01:21:37;;;;;;;9.48;8.75;;;;;;;15.44;93.98;100343.78;1670849;85;21118;-72
2022/05/31 01:24:15;;;;;;;10.80;9.68;;;;;;;15.39;94.13;100340.95;1680031;84;21460;-69
2022/05/31 01:26:47;;;;;;;9.50;8.65;;;;;;;15.36;94.33;100348.91;1678563;85;21030;-69
2022/05/31 01:29:27;;;;;;;9.50;8.70;;;;;;;15.31;94.58;100343.41;1687472;84;21108;-70
2022/05/31 01:32:01;;;;;;;10.60;9.80;;;;;;;15.27;94.53;100350.22;1680227;84;21018;-68
2022/05/31 01:34:54;;;;;;;10.95;10.05;;;;;;;15.24;94.81;100349.84;1682161;84;21042;-68
2022/05/31 01:37:37;;;;;;;12.05;11.05;;;;;;;15.23;95.12;100358.42;1684426;84;20968;-69
2022/05/31 01:40:15;;;;;;;11.70;9.75;;;;;;;15.21;95.41;100361.84;1659821;84;21051;-70
2022/05/31 01:42:48;;;;;;;10.15;9.25;;;;;;;15.22;95.72;100358.14;1668954;84;21015;-71
2022/05/31 01:45:22;;;;;;;10.10;9.28;;;;;;;15.22;96.03;100358.14;1682177;84;20987;-70
2022/05/31 01:47:49;;;;;;;9.28;8.40;;;;;;;15.26;96.44;100363.37;1683436;84;21007;-70
2022/05/31 01:50:20;;;;;;;10.28;9.33;;;;;;;15.30;96.58;100357.86;1685937;84;21066;-71
2022/05/31 01:52:50;;;;;;;10.58;9.63;;;;;;;15.36;96.88;100361.00;1680437;84;21094;-69
2022/05/31 01:55:21;;;;;;;9.73;8.90;;;;;;;15.42;96.62;100357.95;1669010;84;21104;-70
2022/05/31 01:57:54;;;;;;;10.50;9.55;;;;;;;15.45;96.49;100358.06;1679572;84;21115;-70
2022/05/31 02:00:21;;;;;;;9.93;9.10;;;;;;;15.48;96.44;100360.28;1656862;84;21523;-71
2022/05/31 02:02:51;;;;;;;9.60;8.75;;;;;;;15.51;96.43;100370.59;1682909;84;21019;-70
2022/05/31 02:05:20;;;;;;;9.90;9.00;;;;;;;15.54;96.41;100368.30;1686823;84;21178;-69
2022/05/31 02:07:56;;;;;;;9.40;8.50;;;;;;;15.57;96.34;100372.40;1667861;84;21007;-69
2022/05/31 02:10:24;;;;;;;9.65;8.73;;;;;;;15.60;96.32;100370.62;1685237;84;21055;-69
2022/05/31 02:12:53;;;;;;;9.28;8.58;;;;;;;15.64;96.37;100373.17;1683504;84;21523;-70
2022/05/31 02:15:24;;;;;;;9.58;8.55;;;;;;;15.69;96.33;100371.14;1680537;85;21038;-69
2022/05/31 02:17:52;;;;;;;8.63;7.80;;;;;;;15.71;96.28;100372.59;1669510;84;21535;-69
2022/05/31 02:20:20;;;;;;;9.05;8.28;;;;;;;15.75;96.04;100367.09;1684752;85;21012;-72
2022/05/31 02:22:46;;;;;;;8.43;7.72;;;;;;;15.79;95.80;100370.70;1677260;85;21015;-69
2022/05/31 02:25:14;;;;;;;8.78;7.90;;;;;;;15.84;95.00;100369.48;1676926;84;21550;-70
2022/05/31 02:27:40;;;;;;;;;;;;;;;15.90;94.28;100374.81;1685809;84;21100;-69
2022/05/31 02:30:09;;;;;;;9.45;8.15;;;;;;;15.93;93.72;100370.31;1697423;84;20123;-69
2022/05/31 02:32:35;;;;;;;12.00;8.50;;;;;;;15.89;93.56;100371.80;1686123;84;21103;-69
2022/05/31 02:35:06;;;;;;;8.55;7.35;;;;;;;15.93;93.40;100374.34;1683550;84;21468;-68
2022/05/31 02:37:33;;;;;;;9.45;8.48;;;;;;;15.96;92.89;100372.56;1681097;84;21003;-69
2022/05/31 02:40:00;;;;;;;8.23;7.30;;;;;;;16.02;92.52;100370.85;1685718;84;21059;-68
2022/05/31 02:42:27;;;;;;;7.67;7.08;;;;;;;16.06;92.40;100372.05;1686727;84;21119;-69
2022/05/31 02:44:53;;;;;;;8.78;8.00;;;;;;;16.09;92.12;100370.27;1685258;84;21051;-69
2022/05/31 02:47:21;;;;;;;9.18;7.58;;;;;;;16.11;91.98;100367.36;1684473;84;21563;-69
2022/05/31 02:49:49;;;;;;;9.30;8.40;;;;;;;16.15;91.99;100372.05;1678532;84;21098;-69
2022/05/31 02:52:16;;;;;;;7.70;7.00;;;;;;;16.26;91.83;100369.67;1671829;85;21064;-69
2022/05/31 02:54:43;;;;;;;9.68;8.68;;;;;;;16.50;91.42;100370.09;1683920;84;21047;-69
2022/05/31 02:57:20;;;;;;;7.72;7.15;;;;;;;16.89;88.78;100368.45;1685439;84;21503;-70
2022/05/31 03:00:06;;;;;;;7.42;6.92;;;;;;;17.33;86.77;100370.39;1670447;84;21523;-71
2022/05/31 03:02:51;;;;;;;7.75;7.03;;;;;;;17.77;84.26;100374.09;1669171;84;21553;-70
2022/05/31 03:05:38;;;;;;;7.33;6.72;;;;;;;18.05;82.53;100372.86;1686720;84;21075;-70
2022/05/31 03:08:21;;;;;;;7.58;7.08;;;;;;;18.09;81.39;100371.86;1669378;84;21475;-69
2022/05/31 03:10:53;;;;;;;7.15;6.65;;;;;;;18.09;81.28;100370.52;1677333;85;21340;-69
2022/05/31 03:13:24;;;;;;;7.17;6.58;;;;;;;18.24;80.35;100379.46;1672249;84;20994;-71
2022/05/31 03:15:53;;;;;;;7.53;6.90;;;;;;;18.27;79.21;100377.62;1683499;84;21059;-69
2022/05/31 03:18:24;;;;;;;8.58;7.45;;;;;;;18.17;79.77;100380.11;1672436;84;20991;-70
2022/05/31 03:20:55;;;;;;;7.58;6.95;;;;;;;18.05;79.85;100386.34;1687016;84;21043;-69
2022/05/31 03:23:41;;;;;;;8.88;6.15;;;;;;;17.93;80.50;100388.22;1687139;84;21067;-69
2022/05/31 03:26:11;;;;;;;7.17;6.58;;;;;;;17.82;80.91;100393.91;1685296;84;21571;-70
2022/05/31 03:28:39;;;;;;;7.35;6.75;;;;;;;17.67;81.50;100393.55;1662749;84;21016;-69
2022/05/31 03:31:08;;;;;;;6.87;6.37;;;;;;;17.51;82.29;100393.70;1663862;84;21133;-71
2022/05/31 03:33:36;;;;;;;7.45;6.47;;;;;;;17.36;82.89;100398.19;1666650;85;20992;-70
2022/05/31 03:36:05;;;;;;;7.78;7.10;;;;;;;17.24;83.96;100398.17;1676429;84;21064;-69
2022/05/31 03:38:49;;;;;;;7.12;6.62;;;;;;;17.10;84.92;100402.95;1656043;84;21039;-72
2022/05/31 03:41:15;;;;;;;9.18;7.40;;;;;;;16.93;85.80;100405.47;1664263;84;21041;-70
2022/05/31 03:43:47;;;;;;;8.30;7.20;;;;;;;16.82;86.41;100404.02;1680801;84;21042;-70
2022/05/31 03:46:24;;;;;;;7.92;7.30;;;;;;;16.77;86.96;100414.14;1685037;84;20998;-70
2022/05/31 03:49:10;;;;;;;7.83;7.30;;;;;;;16.71;87.52;100413.72;1683917;84;21064;-69
2022/05/31 03:51:44;;;;;;;7.58;6.83;;;;;;;16.69;87.52;100422.01;1666476;85;21039;-69
2022/05/31 03:54:15;;;;;;;7.28;6.67;;;;;;;16.74;87.53;100412.74;1679573;84;21307;-74
2022/05/31 03:57:00;;;;;;;9.13;8.43;;;;;;;16.74;87.53;100412.74;1674431;84;21003;-71
2022/05/31 03:59:26;;;;;;;;;;;;;;;16.72;87.62;100414.00;1687866;84;21119;-70
2022/05/31 04:01:53;;;;;;;8.18;7.15;;;;;;;16.66;88.34;100422.98;1686966;84;20154;-70
2022/05/31 04:04:19;;;;;;;9.08;8.28;;;;;;;16.54;88.75;100412.98;1685946;84;21038;-71
2022/05/31 04:06:46;;;;;;;;;;;;;;;16.50;89.19;100416.33;1666420;86;21050;-70
2022/05/31 04:09:13;;;;;;;8.15;7.58;;;;;;;16.43;89.51;100416.95;1679761;84;20117;-70
2022/05/31 04:11:40;;;;;;;8.08;7.45;;;;;;;16.37;89.80;100428.09;1658043;84;21056;-70
2022/05/31 04:14:08;;;;;;;8.50;7.83;;;;;;;16.34;90.20;100422.62;1678601;84;21529;-70
2022/05/31 04:16:39;;;;;;;10.18;7.33;;;;;;;16.36;90.20;100427.78;1678833;84;21047;-73
2022/05/31 04:19:05;;;;;;;;;;;;;;;16.40;90.31;100420.91;1664450;84;21047;-74
2022/05/31 04:21:32;;;;;;;9.33;8.45;;;;;;;16.41;90.34;100426.59;1681664;84;20430;-70
2022/05/31 04:23:59;;;;;;;10.30;7.92;;;;;;;16.35;90.87;100432.88;1663509;84;21617;-70
2022/05/31 04:26:48;;;;;;;9.53;8.50;;;;;;;16.30;91.15;100434.88;1679847;84;21030;-70
2022/05/31 04:29:35;;;;;;;9.73;8.93;;;;;;;16.29;91.63;100435.09;1668398;84;21003;-70
2022/05/31 04:32:21;;;;;;;8.70;8.00;;;;;;;16.27;91.44;100433.16;1663257;85;21054;-71
2022/05/31 04:34:54;;;;;;;10.20;9.35;;;;;;;16.27;91.65;100441.22;1639614;85;21058;-72
2022/05/31 04:37:22;;;;;;;8.90;8.10;;;;;;;16.29;91.44;100442.66;1653909;85;21517;-71
2022/05/31 04:40:09;;;;;;;10.10;9.23;;;;;;;16.30;91.38;100445.64;1668549;85;21071;-71
2022/05/31 04:45:32;;;;;;;9.90;9.10;;;;;;;16.39;91.51;100448.86;1746232;79;23297;-71
2022/05/31 04:48:01;;;;;;;8.98;8.28;;;;;;;16.33;91.43;100448.39;1690827;84;21041;-71
2022/05/31 04:50:28;;;;;;;10.20;9.35;;;;;;;16.34;91.15;100453.55;1690388;83;21577;-70
2022/05/31 04:52:54;;;;;;;9.78;8.85;;;;;;;16.34;91.15;100453.55;1697127;83;21006;-70
2022/05/31 04:55:21;;;;;;;8.20;7.58;;;;;;;16.34;91.21;100452.21;1684544;83;21020;-69
2022/05/31 04:57:49;;;;;;;8.93;8.28;;;;;;;16.36;91.38;100454.68;1680080;84;21041;-70
2022/05/31 05:00:18;;;;;;;10.03;9.05;;;;;;;16.38;91.41;100457.97;1686313;84;21055;-70
2022/05/31 05:02:46;;;;;;;9.23;8.53;;;;;;;16.39;91.37;100465.00;1676895;84;21097;-75
2022/05/31 05:05:13;;;;;;;9.05;8.28;;;;;;;16.40;91.31;100468.51;1677593;84;21064;-70
2022/05/31 05:07:50;;;;;;;9.45;8.53;;;;;;;16.40;91.30;100466.63;1677533;84;22082;-75
2022/05/31 05:10:17;;;;;;;;;;;;;;;16.41;91.61;100476.36;1681221;84;21705;-72
2022/05/31 05:13:01;;;;;;;10.05;9.25;;;;;;;16.40;91.61;100470.66;1689434;83;20404;-69
2022/05/31 05:15:46;;;;;;;8.23;7.53;;;;;;;16.34;91.60;100474.26;1694953;83;21049;-74
2022/05/31 05:18:12;;;;;;;;;;;;;;;16.34;91.77;100485.83;1689213;83;21065;-70
2022/05/31 05:20:40;;;;;;;9.98;9.08;;;;;;;16.34;91.89;100480.98;1698157;84;20442;-69
2022/05/31 05:23:08;;;;;;;8.65;8.03;;;;;;;16.32;91.99;100483.89;1686847;83;21057;-72
2022/05/31 05:25:35;;;;;;;9.48;8.70;;;;;;;16.34;91.89;100491.74;1670888;85;21069;-72
2022/05/31 05:30:38;;;;;;;7.97;7.47;;;;;;;16.36;91.61;100495.03;1645731;86;21038;-71
2022/05/31 05:30:40;;;;;;;10.70;9.90;;;;;;;16.36;91.61;100495.03;1633939;86;21536;-69
2022/05/31 05:33:19;;;;;;;10.88;9.78;;;;;;;16.36;91.24;100495.03;1622929;85;21530;-72
2022/05/31 05:35:47;;;;;;;10.48;9.60;;;;;;;16.33;91.39;100503.03;1636599;85;21060;-72
2022/05/31 05:38:13;;;;;;;10.32;9.53;;;;;;;16.32;91.25;100498.69;1652982;85;21539;-76
2022/05/31 05:40:58;;;;;;;9.33;8.50;;;;;;;16.33;91.16;100497.66;1640882;87;21045;-70
2022/05/31 05:43:27;;;;;;;8.90;8.28;;;;;;;16.33;91.11;100494.97;1651719;85;21062;-69
2022/05/31 05:45:59;;;;;;;11.35;10.40;;;;;;;16.38;91.41;100501.01;1636960;85;21114;-71
2022/05/31 05:48:25;;;;;;;;;;;;;;;16.37;91.36;100498.53;1634825;86;21299;-70
2022/05/31 05:50:51;;;;;;;11.28;10.32;;;;;;;16.38;91.37;100494.81;1632253;86;20151;-70
2022/05/31 05:53:36;;;;;;;10.88;9.98;;;;;;;16.32;91.84;100490.61;1636450;86;21243;-72
2022/05/31 05:56:22;;;;;;;11.57;10.43;;;;;;;16.36;91.68;100492.34;1623619;86;21123;-70
2022/05/31 05:59:08;;;;;;;10.32;9.53;;;;;;;16.42;91.31;100493.31;1524528;93;21138;-71
2022/05/31 06:01:58;;;;;;;12.35;11.25;;;;;;;16.51;90.76;100498.17;1563014;90;21605;-71
2022/05/31 06:04:42;;;;;;;9.70;8.85;;;;;;;16.55;90.18;100498.02;1601980;85;21068;-71
2022/05/31 06:07:19;;;;;;;9.63;9.03;;;;;;;16.57;89.89;100499.15;1639330;86;21540;-71
2022/05/31 06:09:55;;;;;;;9.73;9.03;;;;;;;16.63;89.44;100502.81;1641966;86;21582;-71
2022/05/31 06:12:27;;;;;;;10.63;9.85;;;;;;;16.69;89.23;100511.36;1655473;86;21036;-70
2022/05/31 06:14:58;;;;;;;10.78;9.98;;;;;;;16.71;89.22;100515.98;1659568;84;20993;-70
2022/05/31 06:17:31;;;;;;;9.45;8.58;;;;;;;16.74;89.30;100515.52;1605680;87;21153;-71
2022/05/31 06:20:01;;;;;;;9.88;9.15;;;;;;;16.78;89.51;100515.89;1607185;87;21025;-71
2022/05/31 06:22:29;;;;;;;10.20;9.45;;;;;;;16.80;89.33;100509.77;1610481;87;21625;-71
2022/05/31 06:24:58;;;;;;;11.30;10.32;;;;;;;16.80;87.88;100513.80;1607075;88;21090;-75
2022/05/31 06:27:42;;;;;;;10.68;9.88;;;;;;;16.80;88.01;100525.41;1628348;85;21134;-70
2022/05/31 06:30:11;;;;;;;10.15;9.25;;;;;;;16.81;88.11;100523.00;1613007;87;21017;-70
2022/05/31 06:32:37;;;;;;;10.75;9.88;;;;;;;16.92;88.02;100530.36;1615039;86;22198;-70
2022/05/31 06:35:05;;;;;;;10.95;9.95;;;;;;;16.92;88.02;100530.36;1643241;85;21078;-71
2022/05/31 06:37:50;;;;;;;9.87;9.20;;;;;;;16.98;87.85;100535.89;1637134;85;21030;-70
2022/05/31 06:40:16;;;;;;;9.48;8.85;;;;;;;17.01;87.35;100528.69;1634884;86;21015;-70
2022/05/31 06:43:01;;;;;;;11.65;9.23;;;;;;;17.10;87.09;100541.64;1650012;85;21073;-71
2022/05/31 06:45:46;;;;;;;9.43;8.70;;;;;;;17.15;86.71;100550.38;1653450;85;21007;-72
2022/05/31 06:48:14;;;;;;;9.85;9.23;;;;;;;17.16;86.16;100553.89;1620725;87;21484;-71
2022/05/31 06:50:43;;;;;;;10.38;9.40;;;;;;;17.14;86.13;100552.80;1620801;88;21149;-72
2022/05/31 06:59:16;;;;;;;11.60;10.63;;;;;;;17.20;86.10;100559.14;1682944;83;21038;-73
2022/05/31 07:01:45;;;;;;;11.40;10.40;;;;;;;17.22;85.68;100566.47;1676198;83;21054;-72
2022/05/31 07:04:11;;;;;;;12.03;10.82;;;;;;;17.22;85.48;100567.28;1672987;83;21032;-72
2022/05/31 07:06:37;;;;;;;10.20;9.38;;;;;;;17.22;85.18;100568.63;1651178;84;21049;-71
2022/05/31 07:09:23;;;;;;;8.47;7.80;;;;;;;17.20;85.23;100576.12;1673247;83;21082;-71
2022/05/31 07:11:49;;;;;;;9.38;8.60;;;;;;;17.13;84.77;100569.98;1682739;83;21025;-70
2022/05/31 07:14:27;;;;;;;;;;;;;;;17.00;84.56;100562.07;1678884;83;21040;-71
2022/05/31 07:17:14;;;;;;;8.63;8.05;;;;;;;16.91;84.54;100574.50;1681037;83;20151;-71
2022/05/31 07:19:42;;;;;;;8.10;7.62;;;;;;;16.76;84.81;100575.86;1690904;83;21113;-70
2022/05/31 07:22:08;;;;;;;;;;;;;;;16.71;85.18;100580.59;1643884;86;21030;-71
2022/05/31 07:24:35;;;;;;;7.30;6.60;;;;;;;16.72;85.52;100584.91;1602176;88;20152;-72
2022/05/31 07:27:15;;;;;;;7.97;7.47;;;;;;;16.70;85.65;100591.03;1612540;87;21052;-70
2022/05/31 07:29:42;;;;;;;7.92;7.40;;;;;;;16.74;85.10;100587.70;1615862;87;21067;-71
2022/05/31 07:32:08;;;;;;;7.60;7.00;;;;;;;16.77;84.37;100584.25;1611354;86;21040;-74
2022/05/31 07:34:35;;;;;;;9.00;8.40;;;;;;;16.72;84.15;100585.72;1623118;86;21056;-72
2022/05/31 07:37:02;;;;;;;8.83;8.00;;;;;;;16.69;84.15;100593.45;1619529;86;21613;-72
2022/05/31 07:39:29;;;;;;;7.08;6.62;;;;;;;16.66;84.14;100595.22;1622748;86;21073;-73
2022/05/31 07:41:56;;;;;;;7.90;7.40;;;;;;;16.65;84.29;100611.91;1625403;86;21065;-72
2022/05/31 07:44:25;;;;;;;6.97;6.47;;;;;;;16.67;84.21;100618.39;1603222;88;21243;-72
2022/05/31 07:46:52;;;;;;;7.87;7.15;;;;;;;16.68;83.64;100616.01;1633915;86;21089;-74
2022/05/31 07:49:18;;;;;;;6.58;6.22;;;;;;;16.67;83.62;100617.89;1630242;86;21134;-76
2022/05/31 07:51:48;;;;;;;7.75;6.47;;;;;;;16.68;83.67;100617.35;1626620;86;21097;-72
2022/05/31 07:54:31;;;;;;;7.40;6.72;;;;;;;16.68;83.20;100617.35;1591683;86;21129;-70
2022/05/31 08:00:05;;;;;;;7.20;6.70;;;;;;;16.72;83.63;100606.44;1607184;86;21049;-72
2022/05/31 08:02:45;;;;;;;6.37;5.97;;;;;;;16.73;83.11;100616.17;1630404;86;21052;-74
2022/05/31 08:05:13;;;;;;;;;;;;;;;16.73;82.94;100616.98;1633001;86;21607;-73
2022/05/31 08:07:39;;;;;;;6.12;5.58;;;;;;;16.78;82.88;100624.38;1611575;86;20153;-73
2022/05/31 08:10:08;;;;;;;;;;;;;;;16.79;81.54;100617.97;1613500;87;21601;-73
2022/05/31 08:12:35;;;;;;;6.70;6.30;;;;;;;16.78;81.28;100624.91;1613698;86;20175;-74
2022/05/31 08:15:04;;;;;;;5.78;5.47;;;;;;;16.75;81.44;100624.84;1619495;86;21072;-70
2022/05/31 08:17:31;;;;;;;6.70;6.15;;;;;;;16.80;81.17;100628.20;1626108;88;21048;-69
2022/05/31 08:19:59;;;;;;;;;;;;;;;16.84;80.93;100638.36;1609724;87;21769;-71
2022/05/31 08:22:25;;;;;;;6.20;5.35;;;;;;;16.88;80.79;100635.52;1627386;86;20203;-74
2022/05/31 08:24:51;;;;;;;5.58;5.20;;;;;;;16.87;81.08;100640.58;1633158;86;21531;-73
2022/05/31 08:27:18;;;;;;;5.85;5.33;;;;;;;16.87;81.16;100636.55;1630054;86;21120;-70
2022/05/31 08:29:45;;;;;;;6.17;5.62;;;;;;;16.90;81.05;100638.80;1618999;86;21068;-73
2022/05/31 08:32:11;;;;;;;12.13;5.72;;;;;;;16.91;80.73;100636.42;1631049;86;21155;-73
2022/05/31 08:34:38;;;;;;;6.03;5.47;;;;;;;16.93;80.02;100631.64;1633070;86;21072;-69
2022/05/31 08:37:04;;;;;;;5.70;5.28;;;;;;;16.95;79.71;100637.30;1631516;86;21099;-70
2022/05/31 08:39:31;;;;;;;5.40;4.97;;;;;;;16.96;79.25;100639.78;1616838;87;21073;-71
2022/05/31 08:42:03;;;;;;;;;;;;;;;16.99;78.90;100658.69;1634469;86;21056;-74
2022/05/31 08:44:41;;;;;;;4.10;4.00;;;;;;;16.95;78.53;100676.34;1616213;87;20126;-71
2022/05/31 08:47:36;;;;;;;3.80;3.60;;;;;;;16.95;78.53;100676.34;1614916;86;21040;-73
2022/05/31 08:53:30;;;;;;;2.33;2.30;;;;;;;16.67;76.05;100700.47;1618035;86;21107;-72
2022/05/31 08:58:56;;;;;;;2.52;2.25;;;;;;;16.61;76.30;100705.39;1625710;86;21132;-71
2022/05/31 09:01:30;;;;;;;3.70;2.27;;;;;;;16.55;76.32;100698.49;1620236;86;21066;-70
2022/05/31 09:04:23;;;;;;;1.40;1.40;;;;;;;16.50;76.20;100711.80;1622275;86;21104;-70
2022/05/31 09:06:54;;;;;;;1.65;1.20;;;;;;;16.42;75.95;100703.16;1621005;86;21075;-72
2022/05/31 09:09:34;;;;;;;1.57;1.37;;;;;;;16.30;76.66;100703.04;1620917;86;21111;-73
2022/05/31 09:12:27;;;;;;;1.25;1.25;;;;;;;16.12;77.38;100688.47;1631322;86;21104;-71
2022/05/31 09:15:05;;;;;;;3.95;1.17;;;;;;;15.90;78.53;100685.81;1623119;86;21159;-70
2022/05/31 09:18:04;;;;;;;2.17;1.27;;;;;;;15.65;79.53;100689.20;1572736;89;21091;-72
2022/05/31 09:20:35;;;;;;;1.65;1.50;;;;;;;15.46;81.20;100694.93;1580938;89;21138;-71
2022/05/31 09:23:03;;;;;;;1.52;1.00;;;;;;;15.24;81.42;100680.13;1585205;89;21077;-70
2022/05/31 09:25:38;;;;;;;2.83;1.20;;;;;;;15.00;79.77;100667.69;1603109;88;21863;-70
2022/05/31 09:28:23;;;;;;;1.12;1.07;;;;;;;14.92;80.83;100690.73;1583902;91;21085;-70
2022/05/31 09:30:50;;;;;;;2.37;1.20;;;;;;;14.85;83.11;100690.73;1600368;88;21075;-71
2022/05/31 09:33:25;;;;;;;1.40;1.12;;;;;;;14.74;84.39;100692.17;1603181;88;21092;-70
2022/05/31 09:36:24;;;;;;;0.78;0.78;;;;;;;14.68;85.18;100694.87;1656812;86;20991;-71
2022/05/31 09:39:14;;;;;;;2.85;1.42;;;;;;;14.60;85.36;100698.06;1660210;85;21046;-76
2022/05/31 09:41:58;;;;;;;1.85;1.30;;;;;;;14.49;86.17;100709.38;1659729;85;21158;-72
2022/05/31 09:44:40;;;;;;;2.55;1.00;;;;;;;14.39;86.87;100717.83;1653642;85;21020;-71
2022/05/31 09:47:20;;;;;;;1.57;1.47;;;;;;;14.30;87.07;100711.00;1659739;85;21029;-72
2022/05/31 09:49:51;;;;;;;1.77;1.50;;;;;;;14.26;86.93;100705.75;1659557;86;21052;-72
2022/05/31 09:52:47;;;;;;;1.72;1.62;;;;;;;14.16;87.04;100707.45;1659796;85;21471;-73
2022/05/31 09:58:27;;;;;;;2.37;2.20;;;;;;;13.93;88.67;100725.23;1656608;85;21069;-72
2022/05/31 10:01:28;;;;;;;2.22;2.12;;;;;;;13.80;89.37;100738.58;1659486;85;21083;-71
2022/05/31 10:04:13;;;;;;;2.83;2.62;;;;;;;13.77;91.12;100733.12;1637418;85;21046;-71
2022/05/31 10:07:06;;;;;;;3.20;3.00;;;;;;;13.68;93.00;100712.88;1655864;85;21112;-71
2022/05/31 10:09:38;;;;;;;3.10;2.90;;;;;;;13.53;92.78;100692.11;1659661;85;21015;-71
2022/05/31 10:12:26;;;;;;;3.85;3.65;;;;;;;13.38;94.73;100699.75;1659544;85;21622;-73
2022/05/31 10:14:54;;;;;;;4.62;4.25;;;;;;;13.30;95.75;100700.38;1659597;85;21068;-72
2022/05/31 10:17:42;;;;;;;4.55;4.25;;;;;;;13.27;96.05;100712.33;1659754;86;21546;-72
2022/05/31 10:20:15;;;;;;;6.08;5.53;;;;;;;13.28;96.44;100709.97;1652534;85;21028;-75
2022/05/31 10:22:58;;;;;;;6.53;6.03;;;;;;;13.33;97.04;100714.75;1658626;85;21032;-72
2022/05/31 10:25:51;;;;;;;5.72;5.08;;;;;;;13.39;97.44;100708.60;1659595;85;21094;-79
2022/05/31 10:28:40;;;;;;;9.18;4.95;;;;;;;13.45;97.78;100711.85;1659692;85;21070;-72
2022/05/31 10:31:41;;;;;;;9.33;5.70;;;;;;;13.46;97.96;100710.81;1659571;85;21077;-71
2022/05/31 10:34:33;;;;;;;7.47;6.92;;;;;;;13.46;98.26;100720.18;1661895;84;21041;-73
2022/05/31 10:37:03;;;;;;;5.10;4.65;;;;;;;13.50;98.55;100732.67;1667881;84;21150;-74
2022/05/31 10:39:36;;;;;;;5.40;5.00;;;;;;;13.56;99.37;100731.86;1679593;84;21034;-72
2022/05/31 10:42:07;;;;;;;5.67;5.28;;;;;;;13.61;100.00;100716.03;1645186;85;21002;-75
2022/05/31 10:44:51;;;;;;;5.95;5.45;;;;;;;13.61;100.00;100710.16;1677134;84;21168;-70
2022/05/31 10:47:21;;;;;;;4.87;4.58;;;;;;;13.61;100.00;100709.34;1675658;84;21582;-72
2022/05/31 10:49:49;;;;;;;5.72;5.28;;;;;;;13.62;100.00;100700.30;1670062;84;21063;-71
2022/05/31 10:52:41;;;;;;;6.37;5.87;;;;;;;13.64;100.00;100698.23;1639660;85;21015;-75
2022/05/31 10:55:32;;;;;;;6.80;6.30;;;;;;;13.70;100.00;100693.94;1677313;84;21107;-73
2022/05/31 10:58:12;;;;;;;5.33;4.97;;;;;;;13.79;100.00;100698.91;1679387;84;21526;-72
2022/05/31 11:01:19;;;;;;;6.58;5.97;;;;;;;13.89;100.00;100705.75;1671167;84;21053;-72
2022/05/31 11:04:01;;;;;;;6.55;6.05;;;;;;;13.98;100.00;100713.41;1679750;84;21610;-71
2022/05/31 11:06:48;;;;;;;6.87;6.30;;;;;;;14.11;100.00;100719.32;1680199;84;21055;-71
2022/05/31 11:12:40;;;;;;;5.87;5.50;;;;;;;14.41;100.00;100728.36;1671684;84;21007;-75
2022/05/31 11:15:18;;;;;;;5.50;5.00;;;;;;;14.49;99.22;100716.61;1675847;84;21105;-70
2022/05/31 11:18:08;;;;;;;5.37;5.08;;;;;;;14.60;99.95;100710.66;1659060;84;21058;-70
2022/05/31 11:20:41;;;;;;;4.20;4.00;;;;;;;14.70;99.28;100708.91;1681977;84;21578;-71
2022/05/31 11:23:29;;;;;;;5.12;4.72;;;;;;;14.76;96.38;100712.91;1684615;84;21023;-70
2022/05/31 11:26:13;;;;;;;6.87;4.40;;;;;;;14.81;97.75;100711.49;1683875;84;21537;-70
2022/05/31 11:29:14;;;;;;;4.67;4.45;;;;;;;14.85;97.41;100711.38;1684543;84;21082;-71
2022/05/31 11:31:49;;;;;;;4.05;3.85;;;;;;;14.89;95.49;100712.09;1673014;84;21130;-73
2022/05/31 11:34:34;;;;;;;7.28;6.58;;;;;;;14.91;95.45;100715.91;1658594;84;21073;-70
2022/05/31 11:37:44;;;;;;;3.98;3.67;;;;;;;14.93;95.83;100711.98;1679836;84;21038;-70
2022/05/31 11:40:30;;;;;;;3.70;3.50;;;;;;;14.97;93.00;100712.39;1683903;84;21082;-70
2022/05/31 11:43:31;;;;;;;3.45;3.15;;;;;;;14.99;93.15;100707.64;1683905;85;21007;-72
2022/05/31 11:46:26;;;;;;;4.58;4.20;;;;;;;14.96;91.08;100703.52;1668738;84;21617;-83
2022/05/31 11:48:57;;;;;;;3.70;3.55;;;;;;;15.05;92.41;100699.27;1678280;84;21086;-73
2022/05/31 11:51:51;;;;;;;4.17;3.98;;;;;;;15.17;92.31;100703.80;1675835;84;21011;-69
2022/05/31 11:54:41;;;;;;;4.90;4.60;;;;;;;15.33;91.89;100703.03;1672020;84;20995;-71
2022/05/31 11:57:45;;;;;;;5.37;4.05;;;;;;;15.52;91.45;100701.31;1647048;84;21045;-73
2022/05/31 12:00:13;;;;;;;4.42;2.77;;;;;;;15.71;91.08;100709.02;1676384;84;21050;-69
2022/05/31 12:02:48;;;;;;;4.22;3.47;;;;;;;15.85;89.23;100709.28;1658380;86;21033;-72
2022/05/31 12:05:20;;;;;;;6.00;3.67;;;;;;;15.91;88.43;100711.63;1641824;86;21049;-69
2022/05/31 12:08:04;;;;;;;2.95;2.75;;;;;;;15.85;87.24;100710.63;1672792;84;21057;-75
2022/05/31 12:10:39;;;;;;;3.22;3.02;;;;;;;15.82;85.89;100708.35;1638503;86;21596;-70
2022/05/31 12:13:10;;;;;;;3.80;3.60;;;;;;;15.85;85.28;100716.00;1663281;84;21037;-71
2022/05/31 12:15:44;;;;;;;2.85;2.12;;;;;;;15.91;86.20;100717.01;1661753;86;21045;-71
2022/05/31 12:18:27;;;;;;;3.10;2.90;;;;;;;16.00;85.81;100722.45;1670393;84;21041;-70
2022/05/31 12:21:20;;;;;;;2.70;2.50;;;;;;;16.04;84.85;100725.00;1661576;86;21121;-72
2022/05/31 12:24:12;;;;;;;5.00;2.98;;;;;;;16.10;84.00;100724.14;1659980;83;21085;-73
2022/05/31 12:26:56;;;;;;;2.72;2.60;;;;;;;16.20;82.46;100732.27;1684257;83;21026;-73